createdAt,value
2022-08-20T00:01:02.010Z,6.38
2022-08-20T00:03:33.283Z,8.65
2022-08-20T00:06:05.592Z,7.18
2022-08-20T00:08:33.646Z,6.22
2022-08-20T00:11:03.428Z,6.60
2022-08-20T00:13:35.489Z,6.65
2022-08-20T00:16:03.785Z,5.93
2022-08-20T00:21:01.206Z,8.82
2022-08-20T00:23:31.019Z,7.10
2022-08-20T00:25:58.995Z,5.68
2022-08-20T00:28:26.878Z,5.65
2022-08-20T00:30:54.789Z,6.45
2022-08-20T00:35:56.400Z,6.88
2022-08-20T00:38:25.514Z,8.52
2022-08-20T00:40:56.348Z,6.80
2022-08-20T00:43:35.435Z,10.32
2022-08-20T00:46:12.214Z,8.90
2022-08-20T00:48:42.589Z,7.78
2022-08-20T00:56:15.604Z,8.07
2022-08-20T00:58:45.916Z,7.15
2022-08-20T01:01:15.852Z,6.25
2022-08-20T01:03:43.788Z,6.88
2022-08-20T01:06:12.202Z,7.70
2022-08-20T01:08:42.694Z,7.68
2022-08-20T01:11:14.968Z,7.97
2022-08-20T01:13:45.795Z,8.68
2022-08-20T01:16:23.037Z,8.35
2022-08-20T01:18:52.629Z,6.40
2022-08-20T01:21:24.991Z,6.43
2022-08-20T01:24:03.463Z,11.32
2022-08-20T01:26:37.129Z,8.35
2022-08-20T01:29:08.749Z,7.07
2022-08-20T01:31:39.266Z,6.28
2022-08-20T01:34:10.278Z,6.38
2022-08-20T01:36:46.104Z,9.85
2022-08-20T01:39:16.954Z,6.85
2022-08-20T01:42:01.497Z,8.88
2022-08-20T01:44:31.037Z,7.30
2022-08-20T01:49:37.332Z,6.88
2022-08-20T01:52:09.566Z,7.53
2022-08-20T01:54:37.507Z,12.00
2022-08-20T01:57:13.473Z,8.80
2022-08-20T02:02:11.129Z,10.32
2022-08-20T02:04:38.945Z,8.07
2022-08-20T02:07:08.634Z,7.65
2022-08-20T02:09:39.287Z,8.90
2022-08-20T02:12:10.916Z,8.20
2022-08-20T02:14:42.298Z,7.00
2022-08-20T02:17:11.664Z,9.95
2022-08-20T02:19:42.454Z,8.60
2022-08-20T02:22:16.054Z,8.30
2022-08-20T02:24:44.322Z,9.68
2022-08-20T02:29:42.127Z,10.32
2022-08-20T02:32:32.210Z,8.68
2022-08-20T02:34:57.838Z,8.25
2022-08-20T02:37:25.688Z,11.77
2022-08-20T02:39:53.638Z,11.52
2022-08-20T02:42:22.920Z,8.27
2022-08-20T02:44:50.728Z,8.40
2022-08-20T02:47:18.563Z,12.27
2022-08-20T02:49:46.387Z,10.57
2022-08-20T02:52:14.220Z,10.65
2022-08-20T02:54:42.025Z,9.02
2022-08-20T02:57:13.950Z,8.85
2022-08-20T02:59:45.234Z,9.95
2022-08-20T03:02:13.490Z,9.15
2022-08-20T03:04:41.484Z,9.02
2022-08-20T03:07:10.484Z,9.55
2022-08-20T03:09:38.530Z,9.13
2022-08-20T03:12:08.114Z,8.48
2022-08-20T03:14:36.913Z,9.80
2022-08-20T03:17:06.491Z,10.63
2022-08-20T03:19:34.535Z,8.80
2022-08-20T03:22:02.376Z,10.75
2022-08-20T03:24:30.284Z,9.77
2022-08-20T03:26:58.182Z,9.90
2022-08-20T03:29:26.036Z,7.95
2022-08-20T03:31:53.862Z,7.45
2022-08-20T03:34:23.100Z,9.13
2022-08-20T03:36:50.983Z,11.68
2022-08-20T03:39:18.847Z,8.65
2022-08-20T03:41:46.718Z,8.93
2022-08-20T03:44:14.625Z,9.55
2022-08-20T03:46:42.530Z,12.18
2022-08-20T03:49:10.410Z,10.60
2022-08-20T03:51:58.120Z,9.23
2022-08-20T03:54:30.192Z,13.25
2022-08-20T03:57:01.412Z,7.93
2022-08-20T03:59:33.047Z,10.60
2022-08-20T04:02:00.992Z,11.25
2022-08-20T04:04:28.893Z,11.88
2022-08-20T04:06:58.115Z,10.38
2022-08-20T04:09:25.945Z,10.73
2022-08-20T04:12:01.044Z,9.52
2022-08-20T04:14:29.319Z,9.75
2022-08-20T04:16:58.069Z,10.23
2022-08-20T04:19:29.141Z,12.20
2022-08-20T04:22:00.479Z,8.65
2022-08-20T04:27:02.313Z,10.23
2022-08-20T04:29:31.993Z,8.70
2022-08-20T04:32:02.727Z,9.00
2022-08-20T04:34:33.966Z,10.18
2022-08-20T04:37:03.336Z,12.00
2022-08-20T04:39:31.410Z,10.32
2022-08-20T04:41:58.606Z,11.18
2022-08-20T04:44:26.508Z,8.65
2022-08-20T04:46:54.452Z,15.75
2022-08-20T04:49:25.191Z,10.15
2022-08-20T04:51:54.680Z,10.00
2022-08-20T04:54:23.995Z,7.47
2022-08-20T04:59:20.094Z,8.52
2022-08-20T05:04:15.831Z,8.18
2022-08-20T05:06:43.856Z,8.38
2022-08-20T05:09:12.199Z,12.00
2022-08-20T05:11:41.431Z,8.48
2022-08-20T05:14:10.206Z,6.85
2022-08-20T05:16:39.724Z,9.02
2022-08-20T05:19:09.675Z,14.45
2022-08-20T05:21:38.074Z,12.10
2022-08-20T05:24:06.706Z,8.98
2022-08-20T05:26:34.967Z,9.55
2022-08-20T05:29:06.332Z,9.30
2022-08-20T05:31:34.886Z,10.80
2022-08-20T05:34:03.346Z,8.35
2022-08-20T05:38:59.326Z,10.27
2022-08-20T05:44:00.119Z,8.18
2022-08-20T05:46:31.175Z,7.53
2022-08-20T05:51:28.206Z,9.02
2022-08-20T05:53:59.082Z,7.07
2022-08-20T05:56:30.592Z,10.73
2022-08-20T05:58:59.216Z,7.75
2022-08-20T06:01:27.112Z,10.32
2022-08-20T06:04:13.664Z,8.43
2022-08-20T06:06:44.789Z,7.95
2022-08-20T06:09:14.896Z,8.55
2022-08-20T06:11:42.754Z,8.25
2022-08-20T06:14:11.087Z,10.82
2022-08-20T06:16:38.939Z,7.43
2022-08-20T06:19:11.196Z,10.15
2022-08-20T06:21:39.859Z,10.60
2022-08-20T06:24:08.127Z,7.40
2022-08-20T06:26:36.731Z,7.82
2022-08-20T06:29:06.541Z,9.60
2022-08-20T06:31:39.884Z,6.60
2022-08-20T06:34:09.364Z,11.30
2022-08-20T06:36:37.258Z,7.45
2022-08-20T06:41:35.996Z,11.48
2022-08-20T06:44:05.598Z,7.75
2022-08-20T06:46:33.508Z,8.60
2022-08-20T06:49:01.541Z,6.45
2022-08-20T06:51:30.799Z,8.38
2022-08-20T06:53:59.158Z,7.63
2022-08-20T06:56:26.980Z,7.80
2022-08-20T06:58:54.820Z,8.05
2022-08-20T07:01:22.787Z,8.13
2022-08-20T07:03:55.483Z,6.43
2022-08-20T07:06:25.661Z,6.05
2022-08-20T07:08:55.762Z,8.82
2022-08-20T07:11:28.163Z,8.73
2022-08-20T07:13:57.007Z,8.32
2022-08-20T07:16:25.290Z,9.30
2022-08-20T07:18:53.155Z,11.63
2022-08-20T07:21:21.034Z,7.85
2022-08-20T07:23:49.553Z,8.27
2022-08-20T07:26:19.001Z,7.43
2022-08-20T07:28:47.456Z,8.60
2022-08-20T07:34:03.072Z,7.38
2022-08-20T07:36:31.216Z,9.85
2022-08-20T07:38:59.153Z,8.90
2022-08-20T07:41:35.050Z,9.70
2022-08-20T07:44:02.962Z,8.50
2022-08-20T07:46:31.657Z,7.60
2022-08-20T07:49:00.193Z,7.00
2022-08-20T07:51:28.673Z,6.85
2022-08-20T07:53:58.317Z,5.63
2022-08-20T07:56:28.149Z,8.32
2022-08-20T07:59:02.282Z,12.27
2022-08-20T08:01:32.830Z,8.77
2022-08-20T08:04:02.731Z,8.32
2022-08-20T08:06:32.482Z,8.90
2022-08-20T08:09:05.522Z,9.85
2022-08-20T08:11:35.764Z,7.45
2022-08-20T08:14:07.459Z,6.55
2022-08-20T08:16:35.748Z,9.02
2022-08-20T08:19:07.410Z,6.78
2022-08-20T08:21:35.321Z,7.80
2022-08-20T08:24:03.231Z,9.57
2022-08-20T08:26:31.111Z,7.47
2022-08-20T08:28:59.167Z,9.52
2022-08-20T08:31:28.572Z,10.20
2022-08-20T08:33:56.918Z,10.98
2022-08-20T08:36:27.257Z,9.35
2022-08-20T08:38:55.923Z,10.45
2022-08-20T08:41:32.198Z,10.13
2022-08-20T08:46:41.428Z,12.95
2022-08-20T08:49:13.379Z,12.80
2022-08-20T08:51:46.413Z,8.50
2022-08-20T08:54:17.732Z,10.77
2022-08-20T08:56:49.727Z,9.27
2022-08-20T08:59:17.969Z,8.65
2022-08-20T09:01:53.779Z,9.75
2022-08-20T09:04:24.882Z,11.43
2022-08-20T09:06:54.609Z,14.43
2022-08-20T09:09:27.366Z,13.43
2022-08-20T09:14:26.528Z,13.68
2022-08-20T09:16:55.803Z,12.90
2022-08-20T09:19:23.655Z,13.10
2022-08-20T09:21:51.623Z,10.95
2022-08-20T09:26:47.610Z,13.55
2022-08-20T09:29:15.470Z,9.40
2022-08-20T09:31:45.186Z,9.18
2022-08-20T09:36:43.587Z,9.40
2022-08-20T09:39:12.612Z,8.98
2022-08-20T09:44:09.310Z,9.02
2022-08-20T09:46:37.473Z,7.57
2022-08-20T09:49:05.373Z,13.13
2022-08-20T09:51:38.423Z,8.07
2022-08-20T09:54:06.942Z,10.65
2022-08-20T09:56:35.823Z,9.10
2022-08-20T09:59:03.821Z,9.82
2022-08-20T10:01:33.313Z,9.13
2022-08-20T10:04:01.583Z,9.35
2022-08-20T10:06:31.622Z,9.52
2022-08-20T10:09:04.561Z,7.90
2022-08-20T10:11:32.440Z,11.05
2022-08-20T10:14:00.624Z,6.65
2022-08-20T10:16:28.601Z,6.63
2022-08-20T10:18:56.406Z,7.35
2022-08-20T10:21:24.726Z,7.25
2022-08-20T10:23:52.621Z,6.90
2022-08-20T10:26:21.859Z,8.25
2022-08-20T10:28:49.867Z,6.57
2022-08-20T10:31:17.820Z,5.40
2022-08-20T10:33:45.829Z,6.22
2022-08-20T10:36:16.561Z,6.13
2022-08-20T10:38:45.553Z,6.53
2022-08-20T10:43:42.982Z,5.50
2022-08-20T10:46:11.001Z,4.35
2022-08-20T10:48:39.087Z,4.50
2022-08-20T10:51:07.298Z,3.90
2022-08-20T10:53:36.126Z,3.15
2022-08-20T10:56:04.208Z,5.82
2022-08-20T10:58:39.783Z,4.05
2022-08-20T11:01:10.853Z,4.50
2022-08-20T11:03:38.740Z,4.55
2022-08-20T11:06:06.909Z,4.25
2022-08-20T11:08:36.254Z,3.85
2022-08-20T11:11:05.346Z,5.43
2022-08-20T11:13:33.584Z,4.80
2022-08-20T11:18:33.041Z,4.63
2022-08-20T11:21:01.521Z,3.67
2022-08-20T11:25:58.053Z,4.22
2022-08-20T11:28:31.207Z,3.50
2022-08-20T11:35:59.308Z,4.53
2022-08-20T11:38:27.194Z,3.70
2022-08-20T11:40:55.131Z,5.90
2022-08-20T11:43:23.105Z,5.38
2022-08-20T11:45:53.858Z,6.82
2022-08-20T11:48:21.925Z,10.57
2022-08-20T11:50:50.702Z,7.85
2022-08-20T11:53:19.973Z,8.75
2022-08-20T11:55:49.471Z,7.82
2022-08-20T11:58:20.008Z,6.97
2022-08-20T12:00:48.457Z,8.00
2022-08-20T12:08:27.727Z,11.55
2022-08-20T12:10:58.697Z,6.25
2022-08-20T12:13:34.698Z,6.32
2022-08-20T12:16:15.767Z,8.25
2022-08-20T12:18:43.777Z,12.57
2022-08-20T12:21:11.703Z,13.55
2022-08-20T12:23:39.681Z,12.68
2022-08-20T12:26:09.135Z,11.70
2022-08-20T12:28:36.964Z,10.57
2022-08-20T12:31:05.897Z,14.93
2022-08-20T12:33:33.700Z,14.30
2022-08-20T12:38:29.419Z,10.88
2022-08-20T12:40:57.275Z,10.30
2022-08-20T12:45:54.469Z,9.48
2022-08-20T12:48:22.271Z,9.18
2022-08-20T12:50:52.744Z,7.82
2022-08-20T12:53:20.703Z,8.75
2022-08-20T12:55:48.541Z,10.80
2022-08-20T12:58:16.380Z,9.27
2022-08-20T13:00:50.684Z,5.22
2022-08-20T13:03:20.008Z,10.48
2022-08-20T13:05:48.221Z,6.97
2022-08-20T13:08:18.090Z,9.07
2022-08-20T13:10:46.736Z,9.70
2022-08-20T13:13:15.559Z,7.07
2022-08-20T13:15:49.693Z,8.13
2022-08-20T13:18:17.541Z,10.93
2022-08-20T13:20:45.458Z,8.10
2022-08-20T13:23:13.287Z,7.97
2022-08-20T13:25:41.131Z,9.27
2022-08-20T13:28:09.117Z,8.25
2022-08-20T13:30:38.766Z,6.45
2022-08-20T13:33:07.992Z,5.88
2022-08-20T13:35:35.898Z,4.43
2022-08-20T13:38:03.862Z,2.90
2022-08-20T13:40:31.762Z,2.30
2022-08-20T13:43:04.610Z,2.72
2022-08-20T13:45:34.538Z,2.33
2022-08-20T13:50:31.759Z,1.75
2022-08-20T13:52:59.772Z,1.90
2022-08-20T13:55:29.718Z,2.38
2022-08-20T13:57:58.788Z,2.25
2022-08-20T14:00:32.360Z,2.08
2022-08-20T14:03:00.786Z,2.40
2022-08-20T14:05:28.951Z,2.65
2022-08-20T14:08:07.829Z,3.13
2022-08-20T14:13:06.808Z,3.95
2022-08-20T14:15:35.575Z,4.47
2022-08-20T14:18:03.586Z,2.40
2022-08-20T14:20:33.697Z,3.53
2022-08-20T14:23:03.543Z,5.03
2022-08-20T14:25:34.221Z,3.53
2022-08-20T14:28:12.032Z,3.20
2022-08-20T14:30:41.509Z,2.40
2022-08-20T14:33:11.873Z,2.60
2022-08-20T14:35:40.230Z,3.20
2022-08-20T14:38:09.658Z,4.75
2022-08-20T14:40:37.823Z,3.53
2022-08-20T14:43:05.660Z,7.38
2022-08-20T14:48:03.234Z,4.07
2022-08-20T14:50:35.262Z,3.55
2022-08-20T14:55:38.415Z,3.03
2022-08-20T14:58:13.556Z,4.55
2022-08-20T15:00:44.549Z,4.75
2022-08-20T15:03:14.505Z,4.82
2022-08-20T15:05:44.655Z,4.72
2022-08-20T15:10:42.366Z,4.90
2022-08-20T15:13:10.211Z,3.70
2022-08-20T15:15:39.465Z,6.30
2022-08-20T15:20:37.527Z,4.65
2022-08-20T15:23:05.750Z,3.80
2022-08-20T15:28:08.513Z,3.47
2022-08-20T15:30:38.041Z,2.88
2022-08-20T15:33:05.910Z,4.68
2022-08-20T15:35:34.123Z,3.63
2022-08-20T15:38:02.242Z,6.85
2022-08-20T15:40:32.791Z,2.33
2022-08-20T15:43:02.568Z,2.88
2022-08-20T15:45:32.581Z,4.53
2022-08-20T15:48:08.335Z,5.88
2022-08-20T15:50:57.170Z,1.52
2022-08-20T15:53:29.943Z,3.38
2022-08-20T15:56:05.704Z,3.60
2022-08-20T15:58:40.811Z,1.55
2022-08-20T16:01:24.237Z,1.83
2022-08-20T16:04:18.471Z,2.47
2022-08-20T16:06:51.258Z,2.65
2022-08-20T16:09:43.131Z,2.17
2022-08-20T16:12:18.055Z,2.72
2022-08-20T16:14:48.948Z,5.75
2022-08-20T16:17:32.007Z,2.33
2022-08-20T16:20:06.950Z,3.75
2022-08-20T16:22:35.812Z,3.25
2022-08-20T16:25:04.056Z,6.35
2022-08-20T16:27:41.891Z,4.60
2022-08-20T16:30:16.620Z,4.10
2022-08-20T16:32:59.545Z,3.05
2022-08-20T16:35:31.617Z,8.43
2022-08-20T16:38:08.517Z,6.65
2022-08-20T16:40:41.971Z,6.05
2022-08-20T16:43:13.599Z,5.38
2022-08-20T16:45:50.841Z,8.40
2022-08-20T16:48:24.002Z,9.75
2022-08-20T16:51:06.386Z,15.32
2022-08-20T16:53:34.444Z,8.18
2022-08-20T16:56:02.382Z,7.38
2022-08-20T16:58:30.485Z,6.97
2022-08-20T17:01:07.903Z,6.13
2022-08-20T17:03:39.961Z,3.83
2022-08-20T17:06:17.817Z,4.82
2022-08-20T17:08:50.832Z,4.03
2022-08-20T17:11:26.346Z,6.28
2022-08-20T17:14:05.469Z,4.72
2022-08-20T17:16:36.699Z,4.30
2022-08-20T17:19:16.052Z,4.30
2022-08-20T17:21:45.030Z,3.15
2022-08-20T17:24:23.916Z,3.22
2022-08-20T17:26:59.581Z,3.92
2022-08-20T17:29:31.300Z,2.90
2022-08-20T17:32:01.441Z,2.83
2022-08-20T17:34:33.209Z,4.25
2022-08-20T17:39:35.402Z,2.83
2022-08-20T17:42:08.925Z,1.65
2022-08-20T17:47:16.082Z,2.35
2022-08-20T17:50:02.187Z,4.85
2022-08-20T17:52:40.222Z,3.22
2022-08-20T17:55:09.555Z,4.22
2022-08-20T17:57:41.273Z,3.30
2022-08-20T18:00:14.333Z,3.28
2022-08-20T18:02:42.956Z,5.07
2022-08-20T18:05:19.002Z,8.70
2022-08-20T18:08:04.612Z,3.55
2022-08-20T18:10:37.770Z,5.07
2022-08-20T18:13:12.966Z,3.13
2022-08-20T18:15:50.435Z,3.70
2022-08-20T18:18:29.186Z,4.28
2022-08-20T18:21:21.638Z,4.30
2022-08-20T18:26:30.476Z,7.28
2022-08-20T18:29:04.028Z,4.80
2022-08-20T18:36:42.606Z,5.57
2022-08-20T18:39:24.812Z,5.78
2022-08-20T18:41:59.976Z,4.15
2022-08-20T18:44:31.277Z,4.95
2022-08-20T18:47:02.081Z,3.58
2022-08-20T18:49:32.362Z,3.00
2022-08-20T18:52:11.380Z,4.93
2022-08-20T18:54:42.293Z,4.90
2022-08-20T18:57:20.628Z,4.40
2022-08-20T18:59:55.526Z,4.38
2022-08-20T19:02:26.525Z,5.10
2022-08-20T19:05:02.312Z,8.77
2022-08-20T19:07:48.118Z,7.00
2022-08-20T19:10:45.272Z,7.40
2022-08-20T19:13:49.799Z,7.18
2022-08-20T19:16:22.763Z,7.35
2022-08-20T19:18:53.302Z,7.20
2022-08-20T19:21:26.074Z,7.53
2022-08-20T19:23:58.154Z,7.82
2022-08-20T19:26:30.148Z,5.68
2022-08-20T19:29:01.862Z,7.70
2022-08-20T19:31:31.299Z,7.85
2022-08-20T19:36:47.059Z,7.35
2022-08-20T19:39:18.917Z,5.43
2022-08-20T19:44:27.595Z,8.38
2022-08-20T19:46:55.781Z,5.22
2022-08-20T19:49:30.142Z,5.15
2022-08-20T19:52:13.944Z,6.03
2022-08-20T19:54:51.087Z,6.35
2022-08-20T19:57:21.086Z,8.40
2022-08-20T19:59:53.569Z,5.28
2022-08-20T20:02:21.968Z,7.32
2022-08-20T20:04:54.816Z,6.05
2022-08-20T20:07:26.894Z,5.70
2022-08-20T20:09:58.807Z,5.75
2022-08-20T20:12:26.731Z,7.88
2022-08-20T20:14:56.368Z,5.32
2022-08-20T20:17:28.390Z,8.55
2022-08-20T20:20:00.098Z,7.72
2022-08-20T20:22:31.550Z,6.20
2022-08-20T20:27:36.540Z,6.32
2022-08-20T20:30:10.070Z,7.13
2022-08-20T20:32:41.393Z,6.85
2022-08-20T20:35:09.891Z,6.05
2022-08-20T20:37:48.913Z,5.25
2022-08-20T20:40:25.406Z,5.68
2022-08-20T20:48:16.041Z,6.35
2022-08-20T20:50:43.932Z,6.80
2022-08-20T20:53:13.272Z,4.63
2022-08-20T20:58:21.918Z,5.07
2022-08-20T21:00:51.559Z,4.57
2022-08-20T21:03:19.464Z,5.60
2022-08-20T21:05:47.927Z,9.68
2022-08-20T21:08:16.033Z,4.75
2022-08-20T21:10:45.285Z,6.93
2022-08-20T21:13:13.191Z,8.63
2022-08-20T21:15:41.256Z,7.93
2022-08-20T21:20:38.757Z,8.95
2022-08-20T21:23:07.254Z,7.25
2022-08-20T21:28:06.299Z,5.53
2022-08-20T21:30:34.362Z,7.75
2022-08-20T21:33:02.396Z,5.13
2022-08-20T21:35:30.440Z,5.25
2022-08-20T21:37:58.271Z,6.25
2022-08-20T21:40:28.141Z,5.30
2022-08-20T21:42:56.686Z,5.72
2022-08-20T21:47:57.354Z,5.72
2022-08-20T21:50:26.639Z,6.30
2022-08-20T21:52:59.448Z,9.98
2022-08-20T21:55:29.375Z,6.63
2022-08-20T21:57:57.893Z,5.78
2022-08-20T22:00:54.403Z,6.00
2022-08-20T22:03:24.683Z,5.35
2022-08-20T22:05:53.860Z,8.35
2022-08-20T22:08:24.268Z,5.88
2022-08-20T22:10:57.356Z,7.18
2022-08-20T22:13:28.601Z,8.60
2022-08-20T22:15:58.842Z,6.32
2022-08-20T22:18:27.291Z,10.23
2022-08-20T22:20:55.771Z,9.10
2022-08-20T22:25:52.474Z,9.27
2022-08-20T22:28:20.914Z,6.70
2022-08-20T22:30:48.836Z,5.88
2022-08-20T22:33:23.109Z,6.80
2022-08-20T22:38:22.249Z,6.53
2022-08-20T22:40:50.203Z,6.28
2022-08-20T22:43:18.620Z,7.47
2022-08-20T22:45:48.323Z,7.65
2022-08-20T22:48:20.792Z,6.28
2022-08-20T22:53:20.402Z,5.43
2022-08-20T22:55:48.755Z,6.72
2022-08-20T23:00:46.256Z,7.28
2022-08-20T23:03:17.990Z,9.45
2022-08-20T23:05:52.729Z,7.82
2022-08-20T23:08:20.638Z,6.20
2022-08-20T23:10:48.631Z,8.13
2022-08-20T23:15:47.686Z,7.95
2022-08-20T23:20:51.296Z,7.07
2022-08-20T23:23:20.958Z,8.48
2022-08-20T23:25:49.020Z,9.70
2022-08-20T23:28:19.708Z,8.45
2022-08-20T23:30:47.851Z,7.72
2022-08-20T23:33:16.200Z,7.57
2022-08-20T23:35:45.904Z,8.10
2022-08-20T23:40:44.367Z,8.02
2022-08-20T23:43:12.398Z,8.95
2022-08-20T23:45:41.300Z,9.18
2022-08-20T23:48:09.576Z,8.50
2022-08-20T23:50:38.191Z,9.30
2022-08-20T23:53:06.585Z,12.75
2022-08-20T23:55:34.536Z,9.75
2022-08-20T23:58:03.850Z,10.02
